SBGOSBMQ

Guest
Details From SBGO - Santo Genoveva
To SBMQ - MACAPA
Flight Number -
Tags decoded
Created
Modified
Stats Distance 1,026 nm / 1,900 km
Max Altitude 0 ft / 0 m
Waypoints 3
Social Downloads 0
Likes 0
Share VATSIM

Download

Looking for another format? Having issues loading an existing format? Contact us
Advertisement - Login to hide

Notes

Requested: SBGO SBPJ SBMQ

Route

SBGO SBPJ SBMQ

ID Type Via Altitude Latitude Longitude Leg Dist Tot Dist Heading (true) Name
O SBGO APT - 0 ft / 0 m -16.63203˚ -49.22069˚ - 0 nm - Santo Genoveva
SBPJ APT - 0 ft / 0 m -10.29152˚ -48.35697˚ 384 nm 384 nm 8° / 7° Tocantins
O SBMQ APT - 0 ft / 0 m 0.05064˚ -51.07216˚ 641 nm 1026 nm 345° / 345° MACAPA

Altitude Profile

Advertisement - Login to hide

Weather


0- 5 10 15 20 25 30 35+ Temperature / ° C

Clouds and Precipitation
Forecast for 2017-12-13 00:00 UTC. Updated an hour ago

Ground ~20,000 ft ~40,000 ft Winds

SBGO

Details ICAO SBGO (GYN)
Name Santo Genoveva
Region Brazil
Timezone America/Sao_Paulo (UTC-2.0)
Stats Elevation 2,450 ft / 747 m (AMSL)
Location -16.632032° -49.220686°
Runways 1
Magnetic Variation 20.988° W

METAR

SBGO 122000Z 35005KT 9999 -RA FEW020 FEW040TCU BKN080 25/19 Q10 13

Decode

TAF

TAF SBGO 121400Z 1218/1318 34003KT 9999 SCT015 FEW035TCU TX24/1218Z TN20/1308Z PROB30 1218/1222 30016KT 4000 TSRA SCT010 FEW040CB BECMG 1300/1302 09002KT 9999 BKN020 PROB30 1308/1313 5000 RA FEW008 BKN015 BECMG 1313/1315 11004KT 9999 BKN025 FEW035TCU RMK PDC

Decode

Departure Runways

ID Width Length Bearing (true) Bearing (mag) Surface Threshold Offset Overrun Length
14 148 ft / 45 m 8,208 ft / 2,502 m 120.42° 141.41° Asphalt 0 ft / 0 m 0 ft / 0 m
32 148 ft / 45 m 8,208 ft / 2,502 m 300.41° 321.40° Asphalt 980 ft / 299 m 0 ft / 0 m

SBMQ

Details ICAO SBMQ (MCP)
Name MACAPA
Region Brazil
Timezone America/Belem (UTC-3.0)
Stats Elevation 56 ft / 17 m (AMSL)
Location 0.050639° -51.072162°
Runways 1
Magnetic Variation 19.352° W

METAR

SBMQ 122000Z 08008KT 9999 FEW030 FEW033TCU 34/24 Q1007

Decode

TAF

TAF SBMQ 121600Z 1218/1318 06010KT 9999 SCT030 TN26/1307Z TX36/1317Z BECMG 1221/1223 03010KT CAVOK BECMG 1305/1307 36005KT BECMG 1311/1313 04008KT SCT023 BECMG 1315/1317 08010KT SCT020 FEW025TCU RMK PEH

Decode

Destination Runways

ID Width Length Bearing (true) Bearing (mag) Surface Threshold Offset Overrun Length
08 148 ft / 45 m 6,917 ft / 2,108 m 57.22° 76.57° Asphalt 0 ft / 0 m 219 ft / 67 m
26 148 ft / 45 m 6,917 ft / 2,108 m 237.22° 256.57° Asphalt 0 ft / 0 m 219 ft / 67 m

Popular Alternatives